Metar z pełnej godziny Komunikat METAR ze strony awiacja.imgw.pl Metar G00 EPRZ METAR EPRZ 230300Z 20016KT 9999 -SHRA FEW033CB 09/04 Q0999 =